Time;durP1;ratioP1;P1;durP2;ratioP2;P2;SDS_P1;SDS_P2;PMS_P1;PMS_P2;Temp;Humidity;BMP_temperature;BMP_pressure;BME280_temperature;BME280_humidity;BME280_pressure;Samples;Min_cycle;Max_cycle;Signal;HPM_P1;HPM_P2
2023/06/27 00:02:06;;;;;;;3.78;1.40;;;;;;;25.07;40.32;101960.53;5030999;28;20061;-67
2023/06/27 00:04:31;;;;;;;4.53;1.30;;;;;;;25.07;40.78;101965.00;5030791;28;20474;-68
2023/06/27 00:06:56;;;;;;;4.17;1.40;;;;;;;25.06;40.73;101963.34;5030863;28;20053;-67
2023/06/27 00:09:22;;;;;;;4.72;1.70;;;;;;;25.06;40.76;101958.84;5031288;28;20913;-69
2023/06/27 00:11:47;;;;;;;3.63;1.50;;;;;;;25.04;40.46;101960.81;5030743;28;20036;-67
2023/06/27 00:14:13;;;;;;;5.53;1.83;;;;;;;25.03;40.47;101953.78;5031088;28;20041;-68
2023/06/27 00:16:39;;;;;;;3.92;1.40;;;;;;;25.05;40.67;101959.81;5030607;28;20043;-69
2023/06/27 00:19:05;;;;;;;5.57;1.70;;;;;;;25.05;40.71;101959.81;5031211;28;20485;-68
2023/06/27 00:21:35;;;;;;;4.53;1.60;;;;;;;25.01;40.84;101957.56;5029941;28;20121;-68
2023/06/27 00:24:01;;;;;;;4.30;1.60;;;;;;;25.03;41.08;101952.97;5030818;28;20037;-68
2023/06/27 00:26:27;;;;;;;3.55;1.33;;;;;;;25.01;40.47;101953.09;5030726;28;20095;-68
2023/06/27 00:28:54;;;;;;;4.00;1.50;;;;;;;25.01;40.65;101961.09;5031063;28;20064;-68
2023/06/27 00:31:19;;;;;;;3.40;1.42;;;;;;;25.01;41.06;101958.44;5030445;28;20033;-68
2023/06/27 00:33:45;;;;;;;6.80;1.70;;;;;;;25.01;40.54;101963.78;5030988;28;20381;-67
2023/06/27 00:36:10;;;;;;;4.43;1.50;;;;;;;24.99;40.47;101955.91;5030373;28;20079;-67
2023/06/27 00:38:36;;;;;;;4.20;1.60;;;;;;;25.00;40.85;101948.75;5030733;28;20726;-67
2023/06/27 00:41:01;;;;;;;3.85;1.40;;;;;;;24.99;41.23;101955.91;5030641;28;20065;-68
2023/06/27 00:43:30;;;;;;;2.75;1.42;;;;;;;24.97;41.20;101944.53;5030150;28;20106;-67
2023/06/27 00:45:56;;;;;;;3.83;1.50;;;;;;;24.98;40.79;101953.41;5031330;28;20033;-68
2023/06/27 00:48:21;;;;;;;4.03;1.65;;;;;;;24.97;40.71;101951.69;5030556;28;20390;-67
2023/06/27 00:50:48;;;;;;;4.93;1.50;;;;;;;24.98;40.78;101951.56;5032685;28;20040;-67
2023/06/27 00:53:14;;;;;;;4.35;1.90;;;;;;;24.96;40.69;101952.69;5034351;28;20107;-68
2023/06/27 00:55:41;;;;;;;3.97;1.50;;;;;;;24.99;40.86;101965.72;5034025;28;20504;-67
2023/06/27 00:58:07;;;;;;;3.90;1.50;;;;;;;24.96;41.22;101956.19;5033824;28;20032;-67
2023/06/27 01:00:32;;;;;;;4.47;1.52;;;;;;;24.97;41.00;101959.69;5034105;28;20495;-67
2023/06/27 01:02:57;;;;;;;4.90;1.60;;;;;;;24.96;40.79;101958.88;5034255;28;20029;-68
2023/06/27 01:05:24;;;;;;;3.95;1.48;;;;;;;24.97;40.71;101957.88;5033663;28;20037;-68
2023/06/27 01:07:56;;;;;;;4.82;1.45;;;;;;;24.95;41.01;101956.34;5033396;28;20500;-69
2023/06/27 01:10:46;;;;;;;4.25;1.52;;;;;;;24.94;40.93;101963.50;5034342;28;20084;-68
2023/06/27 01:13:23;;;;;;;5.15;1.80;;;;;;;24.92;41.07;101961.97;5033439;28;20033;-68
2023/06/27 01:15:49;;;;;;;6.57;1.80;;;;;;;24.94;41.23;101965.31;5033982;28;20725;-68
2023/06/27 01:18:15;;;;;;;5.65;1.35;;;;;;;24.95;41.08;101964.34;5033548;28;20057;-68
2023/06/27 01:20:43;;;;;;;6.53;1.75;;;;;;;24.94;41.01;101959.97;5033542;28;20052;-68
2023/06/27 01:23:16;;;;;;;5.20;1.63;;;;;;;24.94;41.00;101959.97;5033905;28;20029;-68
2023/06/27 01:25:42;;;;;;;3.65;1.77;;;;;;;24.92;41.26;101961.97;5033855;28;20025;-68
2023/06/27 01:28:08;;;;;;;4.38;1.60;;;;;;;24.92;41.03;101952.13;5033807;28;20643;-69
2023/06/27 01:30:34;;;;;;;5.35;1.88;;;;;;;24.92;40.97;101960.13;5032134;28;20068;-68
2023/06/27 01:33:16;;;;;;;5.35;1.50;;;;;;;24.89;40.96;101960.41;5033574;28;20541;-68
2023/06/27 01:35:54;;;;;;;4.47;1.70;;;;;;;24.90;40.65;101964.78;5034049;28;20029;-69
2023/06/27 01:38:30;;;;;;;3.88;1.40;;;;;;;24.90;41.18;101962.09;5034069;28;20214;-68
2023/06/27 01:40:57;;;;;;;5.00;2.13;;;;;;;24.90;40.65;101962.09;5033757;28;20034;-68
2023/06/27 01:43:23;;;;;;;6.60;1.75;;;;;;;24.90;41.30;101969.28;5033295;28;20059;-68
2023/06/27 01:45:49;;;;;;;3.13;1.33;;;;;;;24.88;40.87;101961.41;5033703;28;20850;-68
2023/06/27 01:48:16;;;;;;;5.00;1.63;;;;;;;24.88;41.17;101957.88;5033721;28;20036;-67
2023/06/27 01:50:41;;;;;;;3.53;1.42;;;;;;;24.88;40.81;101958.75;5032835;28;20108;-67
2023/06/27 01:53:06;;;;;;;3.83;1.60;;;;;;;24.87;40.96;101957.06;5033572;28;20120;-69
2023/06/27 01:55:32;;;;;;;4.67;1.63;;;;;;;24.89;40.79;101951.56;5032771;28;20477;-68
2023/06/27 01:57:58;;;;;;;5.43;1.50;;;;;;;24.88;40.91;101953.41;5033028;28;20622;-68
2023/06/27 02:00:23;;;;;;;4.05;1.60;;;;;;;24.86;41.01;101952.69;5032769;28;20037;-68
2023/06/27 02:02:49;;;;;;;5.13;1.60;;;;;;;24.87;41.32;101948.22;5033415;28;20041;-67
2023/06/27 02:05:14;;;;;;;4.53;1.60;;;;;;;24.87;41.11;101954.38;5033654;28;20048;-67
2023/06/27 02:07:40;;;;;;;5.18;1.55;;;;;;;24.87;41.14;101953.56;5024509;28;20039;-68
2023/06/27 02:10:06;;;;;;;5.63;1.95;;;;;;;24.86;40.78;101941.19;5034383;28;20041;-68
2023/06/27 02:12:31;;;;;;;5.97;1.67;;;;;;;24.86;40.74;101949.19;5033238;28;20075;-68
2023/06/27 02:14:56;;;;;;;6.40;1.60;;;;;;;24.84;40.83;101944.00;5033051;28;20107;-69
2023/06/27 02:17:22;;;;;;;4.75;1.80;;;;;;;24.83;40.83;101944.97;5032363;28;20059;-68
2023/06/27 02:19:47;;;;;;;4.10;1.75;;;;;;;24.79;41.35;101938.28;5032918;28;20076;-69
2023/06/27 02:22:12;;;;;;;4.90;1.90;;;;;;;24.83;41.28;101944.16;5032851;28;20037;-70
2023/06/27 02:24:38;;;;;;;4.25;1.58;;;;;;;24.82;40.83;101938.00;5032939;28;20067;-69
2023/06/27 02:27:03;;;;;;;3.78;1.40;;;;;;;24.83;41.19;101942.31;5032756;28;20047;-69
2023/06/27 02:29:28;;;;;;;6.38;1.45;;;;;;;24.85;41.20;101939.50;5032790;28;20780;-68
2023/06/27 02:31:54;;;;;;;4.07;1.50;;;;;;;24.81;41.09;101936.28;5031914;28;20454;-68
2023/06/27 02:34:20;;;;;;;4.20;1.60;;;;;;;24.84;41.12;101941.34;5032125;28;20111;-68
2023/06/27 02:36:45;;;;;;;7.15;1.95;;;;;;;24.81;41.03;101930.97;5032186;28;20040;-68
2023/06/27 02:39:10;;;;;;;4.95;1.80;;;;;;;24.82;40.75;101930.00;5031700;28;20056;-68
2023/06/27 02:41:36;;;;;;;4.22;1.30;;;;;;;24.82;41.43;101935.31;5031571;28;20119;-69
2023/06/27 02:44:01;;;;;;;5.30;1.57;;;;;;;24.82;41.17;101932.66;5032085;28;20037;-69
2023/06/27 02:46:26;;;;;;;4.97;1.80;;;;;;;24.81;41.26;101930.97;5032401;28;20307;-68
2023/06/27 02:48:51;;;;;;;5.10;1.83;;;;;;;24.83;40.86;101936.97;5032385;28;20492;-68
2023/06/27 02:51:17;;;;;;;5.57;1.80;;;;;;;24.81;40.94;101942.47;5031370;28;20044;-68
2023/06/27 02:53:42;;;;;;;5.05;2.10;;;;;;;24.81;41.40;101938.97;5032092;28;20766;-68
2023/06/27 02:56:08;;;;;;;4.18;1.40;;;;;;;24.80;41.04;101927.47;5031506;28;20115;-67
2023/06/27 02:58:33;;;;;;;4.22;1.67;;;;;;;24.80;41.39;101923.94;5031599;28;20098;-69
2023/06/27 03:00:59;;;;;;;3.70;1.60;;;;;;;24.79;41.55;101927.59;5031397;28;20147;-68
2023/06/27 03:03:25;;;;;;;5.07;1.70;;;;;;;24.79;41.14;101930.28;5032001;28;20085;-67
2023/06/27 03:05:50;;;;;;;5.05;2.00;;;;;;;24.78;41.12;101931.25;5031850;28;20055;-68
2023/06/27 03:08:16;;;;;;;4.03;1.70;;;;;;;24.78;41.47;101937.44;5031388;28;20025;-68
2023/06/27 03:10:41;;;;;;;5.32;1.60;;;;;;;24.79;41.13;101938.28;5031866;28;20029;-67
2023/06/27 03:13:07;;;;;;;5.63;1.77;;;;;;;24.77;40.95;101933.09;5030797;28;20363;-67
2023/06/27 03:15:32;;;;;;;4.53;1.60;;;;;;;24.79;41.38;101935.59;5031902;28;20025;-67
2023/06/27 03:17:57;;;;;;;5.43;1.77;;;;;;;24.78;41.05;101941.91;5031696;28;20210;-68
2023/06/27 03:20:23;;;;;;;4.78;1.80;;;;;;;24.78;41.42;101944.56;5031344;28;20033;-67
2023/06/27 03:22:48;;;;;;;4.68;1.73;;;;;;;24.78;41.06;101947.25;5031286;28;20029;-67
2023/06/27 03:25:13;;;;;;;3.90;1.45;;;;;;;24.76;41.57;101943.88;5031791;28;20065;-68
2023/06/27 03:27:39;;;;;;;4.13;1.50;;;;;;;24.76;41.30;101949.22;5031343;28;20104;-67
2023/06/27 03:30:05;;;;;;;4.63;1.60;;;;;;;24.75;41.45;101943.06;5031798;28;20052;-68
2023/06/27 03:32:30;;;;;;;4.40;1.60;;;;;;;24.76;41.08;101941.22;5030793;28;20041;-68
2023/06/27 03:34:55;;;;;;;5.30;1.90;;;;;;;24.77;41.05;101950.91;5031409;28;20040;-69
2023/06/27 03:37:21;;;;;;;5.47;1.70;;;;;;;24.75;41.44;101942.19;5031216;28;20495;-67
2023/06/27 03:39:46;;;;;;;5.38;1.70;;;;;;;24.75;41.49;101942.19;5031516;28;20486;-67
2023/06/27 03:42:12;;;;;;;4.43;1.75;;;;;;;24.73;41.33;101942.34;5031428;28;20037;-68
2023/06/27 03:44:37;;;;;;;5.10;1.70;;;;;;;24.73;41.08;101939.66;5030816;28;20070;-67
2023/06/27 03:47:03;;;;;;;3.83;1.65;;;;;;;24.72;41.33;101943.34;5031352;28;20045;-68
2023/06/27 03:49:28;;;;;;;6.05;1.70;;;;;;;24.74;41.60;101945.88;5031588;28;20763;-68
2023/06/27 03:51:55;;;;;;;3.25;1.50;;;;;;;24.71;41.09;101944.31;5030843;28;20071;-70
2023/06/27 03:54:20;;;;;;;5.10;1.50;;;;;;;24.73;41.56;101941.50;5030844;28;20029;-67
2023/06/27 03:56:46;;;;;;;4.00;1.65;;;;;;;24.72;41.44;101948.66;5030760;28;20041;-68
2023/06/27 03:59:11;;;;;;;4.35;1.70;;;;;;;24.71;41.13;101943.47;5030816;28;20061;-67
2023/06/27 04:01:39;;;;;;;6.85;1.58;;;;;;;24.73;41.67;101952.16;5030493;28;20538;-69
2023/06/27 04:04:04;;;;;;;5.43;1.73;;;;;;;24.73;41.67;101957.50;5031223;28;20088;-68
2023/06/27 04:06:29;;;;;;;4.00;1.67;;;;;;;24.72;41.45;101958.47;5030873;28;20494;-67
2023/06/27 04:08:56;;;;;;;5.03;1.80;;;;;;;24.72;41.64;101958.47;5030754;28;20037;-67
2023/06/27 04:11:22;;;;;;;5.32;1.70;;;;;;;24.70;41.72;101949.78;5030785;28;20032;-68
2023/06/27 04:13:47;;;;;;;6.18;1.58;;;;;;;24.70;41.63;101960.44;5031177;28;20043;-66
2023/06/27 04:16:12;;;;;;;5.78;1.67;;;;;;;24.69;41.12;101945.41;5030847;28;20470;-69
2023/06/27 04:18:38;;;;;;;6.53;1.85;;;;;;;24.70;41.52;101947.13;5030307;28;20092;-69
2023/06/27 04:21:03;;;;;;;3.78;1.70;;;;;;;24.70;41.54;101947.13;5030720;28;20049;-68
2023/06/27 04:23:28;;;;;;;4.13;1.58;;;;;;;24.69;41.22;101943.63;5031118;28;20029;-68
2023/06/27 04:26:03;;;;;;;3.63;1.20;;;;;;;24.68;41.38;101959.75;5032033;28;20410;-69
2023/06/27 04:28:30;;;;;;;4.53;1.67;;;;;;;24.69;41.65;101948.09;5034426;28;20029;-68
2023/06/27 04:30:55;;;;;;;4.88;1.80;;;;;;;24.68;41.51;101951.75;5034710;28;20112;-69
2023/06/27 04:33:22;;;;;;;5.50;1.77;;;;;;;24.67;41.60;101948.22;5033420;28;20120;-68
2023/06/27 04:35:48;;;;;;;6.85;1.70;;;;;;;24.66;41.34;101951.91;5034003;28;20060;-68
2023/06/27 04:38:14;;;;;;;5.65;2.00;;;;;;;24.66;41.14;101951.03;5033731;28;20412;-68
2023/06/27 04:40:41;;;;;;;5.13;1.70;;;;;;;24.64;41.74;101956.50;5034783;28;20375;-68
2023/06/27 04:43:07;;;;;;;5.25;1.67;;;;;;;24.67;41.79;101958.06;5034521;28;20114;-69
2023/06/27 04:45:32;;;;;;;4.47;1.60;;;;;;;24.65;41.42;101952.88;5033817;28;20057;-68
2023/06/27 04:47:57;;;;;;;6.72;2.15;;;;;;;24.63;41.68;101953.00;5034561;28;20033;-68
2023/06/27 04:50:23;;;;;;;4.65;1.95;;;;;;;24.65;41.54;101963.53;5034463;28;20421;-68
2023/06/27 04:52:48;;;;;;;4.80;1.85;;;;;;;24.64;41.43;101953.84;5034476;28;20033;-68
2023/06/27 04:55:15;;;;;;;4.90;1.70;;;;;;;24.66;41.61;101967.03;5034570;28;20124;-68
2023/06/27 04:57:41;;;;;;;4.25;1.50;;;;;;;24.66;41.83;101973.22;5033795;28;20033;-69
2023/06/27 05:00:09;;;;;;;6.78;1.88;;;;;;;24.65;41.72;101965.38;5034061;28;20078;-68
2023/06/27 05:02:35;;;;;;;3.65;1.55;;;;;;;24.63;41.41;101961.00;5034175;28;20465;-69
2023/06/27 05:05:00;;;;;;;4.88;1.90;;;;;;;24.62;41.77;101956.69;5034142;28;20091;-69
2023/06/27 05:07:26;;;;;;;5.50;1.73;;;;;;;24.63;41.85;101966.34;5034427;28;20037;-68
2023/06/27 05:09:51;;;;;;;5.15;1.40;;;;;;;24.63;41.73;101966.34;5033975;28;20068;-68
2023/06/27 05:12:16;;;;;;;4.50;1.55;;;;;;;24.65;41.90;101968.84;5033662;28;20033;-68
2023/06/27 05:14:41;;;;;;;5.35;1.90;;;;;;;24.62;41.66;101969.13;5034420;28;20136;-68
2023/06/27 05:17:07;;;;;;;6.45;1.83;;;;;;;24.63;41.75;101968.16;5034092;28;20492;-68
2023/06/27 05:19:32;;;;;;;6.03;1.80;;;;;;;24.64;41.98;101967.16;5033267;28;20056;-68
2023/06/27 05:21:57;;;;;;;4.85;2.17;;;;;;;24.62;41.62;101964.66;5033616;28;20259;-67
2023/06/27 05:24:23;;;;;;;6.28;2.08;;;;;;;24.61;42.22;101959.47;5034296;28;20362;-68
2023/06/27 05:26:48;;;;;;;5.30;1.90;;;;;;;24.60;41.92;101963.13;5033703;28;20811;-68
2023/06/27 05:29:14;;;;;;;3.90;1.52;;;;;;;24.63;41.93;101970.84;5034014;28;20036;-67
2023/06/27 05:31:40;;;;;;;5.03;1.87;;;;;;;24.63;41.89;101969.00;5033361;28;20037;-67
2023/06/27 05:34:05;;;;;;;5.72;1.98;;;;;;;24.62;42.18;101967.34;5033919;28;20348;-67
2023/06/27 05:36:31;;;;;;;5.40;1.88;;;;;;;24.62;42.09;101961.13;5032783;28;20454;-69
2023/06/27 05:38:56;;;;;;;5.22;1.80;;;;;;;24.62;41.90;101971.81;5033282;28;20392;-68
2023/06/27 05:41:21;;;;;;;7.03;1.77;;;;;;;24.63;41.92;101962.84;5033369;28;20091;-67
2023/06/27 05:43:47;;;;;;;4.85;1.67;;;;;;;24.63;42.13;101973.50;5039900;28;20091;-67
2023/06/27 05:46:12;;;;;;;4.93;1.90;;;;;;;24.63;41.98;101970.84;5032996;28;20033;-67
2023/06/27 05:48:38;;;;;;;4.85;1.90;;;;;;;24.59;42.51;101958.75;5032989;28;20029;-68
2023/06/27 05:51:03;;;;;;;5.38;1.95;;;;;;;24.61;42.08;101956.81;5033285;28;20366;-67
2023/06/27 05:53:28;;;;;;;5.13;2.00;;;;;;;24.63;42.55;101957.50;5033324;28;20390;-67
2023/06/27 05:55:54;;;;;;;5.63;1.52;;;;;;;24.62;42.17;101958.47;5032783;28;20044;-68
2023/06/27 05:58:19;;;;;;;6.18;1.60;;;;;;;24.57;42.15;101950.91;5033301;28;20614;-67
2023/06/27 06:00:44;;;;;;;4.78;1.73;;;;;;;24.63;42.61;101963.66;5032903;28;20034;-68
2023/06/27 06:03:10;;;;;;;7.70;1.80;;;;;;;24.62;42.57;101956.69;5032739;28;20366;-68
2023/06/27 06:05:35;;;;;;;5.35;1.92;;;;;;;24.63;42.31;101968.16;5032285;28;20425;-68
2023/06/27 06:08:00;;;;;;;7.87;2.13;;;;;;;24.63;42.50;101960.16;5032943;28;20041;-70
2023/06/27 06:10:25;;;;;;;7.45;2.50;;;;;;;24.57;43.22;101960.72;5033391;28;20268;-67
2023/06/27 06:12:51;;;;;;;9.93;3.05;;;;;;;24.47;43.88;101962.50;5032833;28;20040;-67
2023/06/27 06:15:17;;;;;;;6.75;2.72;;;;;;;24.33;44.56;101963.78;5033078;28;20531;-67
2023/06/27 06:17:42;;;;;;;9.25;3.00;;;;;;;24.21;45.08;101958.59;5032774;28;20029;-67
2023/06/27 06:20:09;;;;;;;8.52;2.70;;;;;;;24.07;45.50;101953.66;5032379;28;20034;-67
2023/06/27 06:22:35;;;;;;;8.30;3.05;;;;;;;23.95;45.81;101966.22;5032421;28;20044;-67
2023/06/27 06:25:01;;;;;;;12.80;3.28;;;;;;;23.83;46.19;101960.19;5033017;28;20462;-68
2023/06/27 06:27:26;;;;;;;9.50;3.10;;;;;;;23.74;45.47;101963.63;5032531;28;20029;-68
2023/06/27 06:29:51;;;;;;;10.73;3.10;;;;;;;23.69;46.38;101965.84;5032740;28;20032;-68
2023/06/27 06:32:16;;;;;;;8.05;2.80;;;;;;;23.62;46.78;101960.19;5031035;28;20785;-66
2023/06/27 06:34:42;;;;;;;9.32;3.10;;;;;;;23.56;46.60;101968.75;5033118;28;20083;-67
2023/06/27 06:37:07;;;;;;;9.32;2.95;;;;;;;23.50;47.10;101969.28;5032313;28;20557;-67
2023/06/27 06:39:33;;;;;;;10.95;3.03;;;;;;;23.48;47.44;101968.53;5032109;28;20075;-67
2023/06/27 06:41:58;;;;;;;8.50;3.38;;;;;;;23.44;47.60;101973.28;5032220;28;20037;-66
2023/06/27 06:44:23;;;;;;;10.45;3.25;;;;;;;23.42;47.49;101979.75;5032320;28;20037;-68
2023/06/27 06:46:49;;;;;;;9.35;3.40;;;;;;;23.36;47.75;101976.63;5032149;28;20090;-67
2023/06/27 06:49:14;;;;;;;9.93;2.80;;;;;;;23.31;47.79;101988.63;5032069;28;20056;-67
2023/06/27 06:51:39;;;;;;;8.95;3.15;;;;;;;23.22;47.97;101984.94;5031503;28;20493;-67
2023/06/27 06:54:05;;;;;;;9.57;3.05;;;;;;;23.20;48.26;101980.75;5031847;28;20032;-67
2023/06/27 06:56:30;;;;;;;9.68;2.92;;;;;;;23.12;48.76;101989.38;5031532;28;20091;-68
2023/06/27 06:58:55;;;;;;;11.90;3.15;;;;;;;23.11;48.56;101982.34;5032412;28;20033;-67
2023/06/27 07:01:21;;;;;;;13.13;3.53;;;;;;;23.07;48.63;101987.06;5031609;28;20497;-67
2023/06/27 07:03:46;;;;;;;12.05;3.40;;;;;;;23.03;48.41;101984.78;5031918;28;20462;-68
2023/06/27 07:06:11;;;;;;;8.85;3.00;;;;;;;23.03;48.77;101985.63;5032096;28;20062;-69
2023/06/27 07:08:38;;;;;;;10.25;3.22;;;;;;;22.98;48.59;101983.34;5031303;28;20039;-67
2023/06/27 07:11:04;;;;;;;7.80;2.90;;;;;;;22.99;48.69;101979.72;5031601;28;20084;-69
2023/06/27 07:13:29;;;;;;;7.10;2.77;;;;;;;22.99;48.87;101985.03;5031503;28;20485;-67
2023/06/27 07:15:54;;;;;;;11.75;3.40;;;;;;;23.03;48.91;101990.09;5031917;28;20259;-68
2023/06/27 07:18:19;;;;;;;10.40;3.47;;;;;;;23.04;48.71;101986.50;5031025;28;20144;-70
2023/06/27 07:20:45;;;;;;;8.35;3.40;;;;;;;23.06;48.49;101996.00;5032072;28;20053;-69
2023/06/27 07:23:11;;;;;;;8.25;2.60;;;;;;;23.11;47.79;101991.16;5031156;28;20499;-68
2023/06/27 07:25:38;;;;;;;8.32;2.78;;;;;;;23.12;47.37;101984.88;5032227;28;20496;-68
2023/06/27 07:28:04;;;;;;;10.93;2.55;;;;;;;23.16;47.72;101994.28;5031265;28;20064;-68
2023/06/27 07:30:29;;;;;;;8.70;2.90;;;;;;;23.14;46.47;101971.47;5031051;28;20134;-69
2023/06/27 07:32:55;;;;;;;9.35;3.22;;;;;;;23.17;46.52;101984.50;5031594;28;20041;-69
2023/06/27 07:35:21;;;;;;;8.70;2.55;;;;;;;23.17;46.90;101985.31;5030127;28;20171;-69
2023/06/27 07:37:46;;;;;;;8.50;2.33;;;;;;;23.18;45.80;101983.53;5031518;28;20120;-70
2023/06/27 07:40:12;;;;;;;7.05;2.08;;;;;;;23.22;45.52;101974.28;5031345;28;20604;-67
2023/06/27 07:42:37;;;;;;;6.68;2.20;;;;;;;23.25;45.29;101970.53;5031399;28;20029;-71
2023/06/27 07:45:02;;;;;;;6.93;2.22;;;;;;;23.25;45.50;101971.38;5031137;28;20030;-68
2023/06/27 07:47:28;;;;;;;7.05;2.30;;;;;;;23.29;46.37;101975.47;5031583;28;20045;-72
2023/06/27 07:49:54;;;;;;;7.20;2.33;;;;;;;23.30;46.05;101993.09;5030606;28;20029;-70
2023/06/27 07:52:19;;;;;;;9.75;2.25;;;;;;;23.31;45.83;101972.69;5031130;28;20036;-72
2023/06/27 07:54:44;;;;;;;7.28;3.10;;;;;;;23.35;44.67;101977.59;5031293;28;20025;-66
2023/06/27 07:57:10;;;;;;;8.43;2.40;;;;;;;23.38;45.90;101984.47;5031068;28;20025;-68
2023/06/27 07:59:35;;;;;;;5.50;1.98;;;;;;;23.33;46.19;101968.91;5030106;28;20033;-66
2023/06/27 08:02:01;;;;;;;6.13;2.20;;;;;;;23.37;45.80;101977.47;5031255;28;20678;-70
2023/06/27 08:04:26;;;;;;;7.32;1.88;;;;;;;23.38;44.76;101973.81;5031068;28;20033;-72
2023/06/27 08:06:53;;;;;;;7.20;1.80;;;;;;;23.38;44.51;101973.81;5030556;28;20501;-73
2023/06/27 08:09:20;;;;;;;6.03;1.67;;;;;;;23.40;44.27;101979.88;5031088;28;20458;-66
2023/06/27 08:11:45;;;;;;;7.88;1.83;;;;;;;23.39;44.59;101972.84;5030953;28;20401;-66
2023/06/27 08:14:10;;;;;;;4.93;1.40;;;;;;;23.39;44.17;101975.53;5030997;28;20041;-69
2023/06/27 08:16:36;;;;;;;6.10;1.45;;;;;;;23.39;44.24;101974.69;5030805;28;20033;-71
2023/06/27 08:19:01;;;;;;;5.55;1.80;;;;;;;23.40;44.27;101971.91;5031374;28;20450;-70
2023/06/27 08:21:27;;;;;;;5.10;1.60;;;;;;;23.40;44.25;101971.91;5030423;28;20025;-70
2023/06/27 08:23:52;;;;;;;6.75;1.67;;;;;;;23.42;43.98;101971.75;5030903;28;20037;-70
2023/06/27 08:26:18;;;;;;;7.28;2.03;;;;;;;23.40;44.88;101965.72;5030793;28;20068;-69
2023/06/27 08:28:44;;;;;;;11.38;1.83;;;;;;;23.42;44.14;101969.94;5031115;28;20397;-67
2023/06/27 08:31:12;;;;;;;6.07;1.55;;;;;;;23.41;44.56;101964.75;5031025;28;20512;-68
2023/06/27 08:33:39;;;;;;;7.15;1.70;;;;;;;23.45;45.40;101971.47;5028905;28;20033;-65
2023/06/27 08:36:04;;;;;;;6.15;1.73;;;;;;;23.39;44.92;101966.72;5028478;28;20542;-70
2023/06/27 08:38:30;;;;;;;6.38;1.50;;;;;;;23.38;44.43;101971.16;5030519;28;20117;-66
2023/06/27 08:40:55;;;;;;;5.03;1.58;;;;;;;23.33;43.59;101965.41;5030745;28;20040;-66
2023/06/27 08:43:22;;;;;;;7.15;1.60;;;;;;;23.32;43.46;101969.91;5029789;28;20473;-68
2023/06/27 08:45:53;;;;;;;6.32;1.55;;;;;;;23.33;43.89;101971.56;5029619;28;20078;-66
2023/06/27 08:48:19;;;;;;;4.40;1.40;;;;;;;23.35;43.71;101966.97;5029516;28;20025;-65
2023/06/27 08:50:45;;;;;;;5.70;1.45;;;;;;;23.36;42.89;101962.47;5030222;28;20363;-66
2023/06/27 08:53:17;;;;;;;6.47;2.05;;;;;;;23.38;43.87;101963.19;5029453;28;20060;-68
2023/06/27 08:56:10;;;;;;;6.03;1.70;;;;;;;23.37;44.18;101953.53;5030536;28;20036;-65
2023/06/27 08:58:49;;;;;;;6.10;1.73;;;;;;;23.46;44.14;101962.53;5029350;28;20037;-66
2023/06/27 09:01:15;;;;;;;6.32;1.75;;;;;;;23.46;43.46;101958.03;5030322;28;20073;-69
2023/06/27 09:03:40;;;;;;;6.10;2.03;;;;;;;23.46;43.29;101955.38;5029706;28;20075;-68
2023/06/27 09:06:07;;;;;;;5.05;1.45;;;;;;;23.43;42.66;101958.34;5029066;28;20033;-67
2023/06/27 09:08:33;;;;;;;6.13;1.70;;;;;;;23.41;42.81;101959.44;5030093;28;20033;-69
2023/06/27 09:11:00;;;;;;;6.25;1.80;;;;;;;23.35;43.15;101959.00;5030578;28;20445;-68
2023/06/27 09:13:25;;;;;;;4.57;1.55;;;;;;;23.31;43.27;101957.56;5034323;28;20492;-70
2023/06/27 09:15:51;;;;;;;8.70;1.50;;;;;;;23.33;43.20;101960.09;5033899;28;20068;-68
2023/06/27 09:18:16;;;;;;;7.13;1.50;;;;;;;23.31;43.57;101956.72;5033691;28;20565;-70
2023/06/27 09:20:42;;;;;;;5.65;1.55;;;;;;;23.31;43.51;101957.56;5034165;28;20047;-68
2023/06/27 09:23:08;;;;;;;5.53;1.30;;;;;;;23.32;44.21;101956.59;5033851;28;20041;-65
2023/06/27 09:25:33;;;;;;;6.70;1.50;;;;;;;23.25;43.58;101962.56;5033466;28;20049;-70
2023/06/27 09:28:13;;;;;;;5.35;1.23;;;;;;;23.20;43.05;101957.63;5032678;28;20124;-72
2023/06/27 09:30:39;;;;;;;5.65;1.30;;;;;;;23.18;43.00;101956.94;5032663;28;20029;-69
2023/06/27 09:33:04;;;;;;;3.27;1.30;;;;;;;23.21;43.32;101964.66;5033306;28;20044;-69
2023/06/27 09:35:31;;;;;;;5.85;1.30;;;;;;;23.32;43.11;101958.38;5031808;28;20297;-68
2023/06/27 09:38:06;;;;;;;4.28;1.13;;;;;;;23.35;42.80;101961.66;5032436;28;20374;-68
2023/06/27 09:40:35;;;;;;;3.35;1.13;;;;;;;23.35;41.92;101961.66;5032462;28;20041;-67
2023/06/27 09:43:00;;;;;;;6.22;1.10;;;;;;;23.42;41.64;101961.13;5032993;28;20037;-69
2023/06/27 09:45:29;;;;;;;3.15;0.88;;;;;;;23.48;42.20;101963.22;5033347;28;20078;-70
2023/06/27 09:47:56;;;;;;;3.55;1.13;;;;;;;23.50;41.80;101964.78;5032130;28;20140;-71
2023/06/27 09:50:29;;;;;;;3.03;1.10;;;;;;;23.57;41.56;101973.06;5032829;28;20033;-65
2023/06/27 09:53:05;;;;;;;3.57;1.00;;;;;;;23.63;41.60;101977.88;5032317;28;20055;-71
2023/06/27 09:55:30;;;;;;;4.90;1.30;;;;;;;23.68;40.09;101972.97;5032660;28;20281;-69
2023/06/27 09:57:57;;;;;;;2.85;0.90;;;;;;;23.72;39.42;101963.75;5031827;28;20032;-66
2023/06/27 10:00:25;;;;;;;5.13;1.00;;;;;;;23.76;39.47;101966.16;5032501;28;20025;-69
2023/06/27 10:02:51;;;;;;;4.68;1.15;;;;;;;23.76;38.96;101961.66;5032510;28;20028;-66
2023/06/27 10:05:18;;;;;;;4.57;1.00;;;;;;;23.79;39.62;101960.56;5032083;28;20741;-67
2023/06/27 10:07:44;;;;;;;4.50;1.10;;;;;;;23.83;38.95;101967.28;5032745;28;20036;-70
2023/06/27 10:10:10;;;;;;;4.15;0.93;;;;;;;23.87;38.45;101963.41;5032069;28;20029;-67
2023/06/27 10:12:37;;;;;;;2.95;0.80;;;;;;;23.87;38.51;101964.25;5032221;28;20402;-70
2023/06/27 10:15:04;;;;;;;3.40;0.90;;;;;;;23.93;38.21;101964.69;5033299;28;20029;-68
2023/06/27 10:17:30;;;;;;;3.22;0.93;;;;;;;24.00;38.91;101968.50;5032760;28;20116;-70
2023/06/27 10:19:56;;;;;;;4.03;0.90;;;;;;;24.03;39.02;101971.72;5032321;28;20136;-68
2023/06/27 10:22:29;;;;;;;2.53;0.93;;;;;;;24.07;39.08;101973.13;5031299;28;20040;-66
2023/06/27 10:25:00;;;;;;;3.22;0.98;;;;;;;24.12;38.61;101974.56;5032324;28;20033;-69
2023/06/27 10:27:26;;;;;;;2.85;0.90;;;;;;;24.15;39.07;101966.25;5032422;28;20052;-70
2023/06/27 10:29:51;;;;;;;3.47;1.10;;;;;;;24.13;38.10;101968.22;5032077;28;20029;-68
2023/06/27 10:32:18;;;;;;;4.30;1.00;;;;;;;24.14;38.66;101975.25;5031829;28;20032;-70
2023/06/27 10:34:44;;;;;;;3.42;1.05;;;;;;;24.15;39.09;101961.78;5033640;28;20037;-68
2023/06/27 10:37:30;;;;;;;5.28;1.30;;;;;;;24.15;38.54;101976.91;5031810;28;20069;-70
2023/06/27 10:40:06;;;;;;;3.05;1.00;;;;;;;24.20;39.00;101978.19;5031263;28;20465;-68
2023/06/27 10:42:32;;;;;;;3.70;0.95;;;;;;;24.23;38.96;101959.28;5030902;28;20359;-69
2023/06/27 10:45:03;;;;;;;3.22;0.93;;;;;;;24.25;39.38;101959.97;5031427;28;20036;-68
2023/06/27 10:47:38;;;;;;;3.33;0.82;;;;;;;24.28;40.20;101964.19;5031071;28;20033;-69
2023/06/27 10:50:12;;;;;;;3.00;0.80;;;;;;;24.33;39.83;101961.13;5031990;28;20092;-70
2023/06/27 10:52:39;;;;;;;2.60;0.98;;;;;;;24.37;39.97;101954.50;5029772;28;20036;-68
2023/06/27 10:55:13;;;;;;;4.70;1.15;;;;;;;24.38;40.25;101950.88;5031009;28;20033;-72
2023/06/27 10:57:39;;;;;;;4.47;1.23;;;;;;;24.42;40.00;101960.28;5031101;28;20064;-71
2023/06/27 11:00:14;;;;;;;4.30;0.73;;;;;;;24.43;40.29;101956.63;5031460;28;20041;-72
2023/06/27 11:02:45;;;;;;;4.47;1.00;;;;;;;24.44;40.14;101953.00;5030588;28;20036;-73
2023/06/27 11:05:18;;;;;;;3.97;1.08;;;;;;;24.48;39.65;101961.53;5033789;28;20037;-78
2023/06/27 11:07:58;;;;;;;3.90;0.80;;;;;;;24.46;40.04;101951.00;5030795;28;20056;-69
2023/06/27 11:10:26;;;;;;;5.90;1.02;;;;;;;24.53;39.64;101954.81;5031679;28;20033;-67
2023/06/27 11:13:12;;;;;;;2.53;1.00;;;;;;;24.53;39.96;101960.16;5031420;28;20171;-68
2023/06/27 11:15:38;;;;;;;3.08;0.80;;;;;;;24.55;40.14;101968.84;5032273;28;20041;-68
2023/06/27 11:18:04;;;;;;;2.17;0.93;;;;;;;24.53;40.02;101964.63;5031965;28;20092;-68
2023/06/27 11:20:30;;;;;;;5.25;0.98;;;;;;;24.53;40.33;101961.94;5032848;28;20040;-69
2023/06/27 11:22:58;;;;;;;2.70;0.80;;;;;;;24.53;40.03;101960.16;5031039;28;20024;-68